Time;durP1;ratioP1;P1;durP2;ratioP2;P2;SDS_P1;SDS_P2;PMS_P1;PMS_P2;Temp;Humidity;BMP_temperature;BMP_pressure;BME280_temperature;BME280_humidity;BME280_pressure;Samples;Min_cycle;Max_cycle;Signal;HPM_P1;HPM_P2
2022/03/02 00:01:04;;;;;;;;;;;7.60;81.60;;;;;;4962364;28;19914;-88
2022/03/02 00:03:30;;;;;;;;;;;7.60;81.60;;;;;;4962209;28;19914;-88
2022/03/02 00:05:56;;;;;;;;;;;7.60;81.60;;;;;;4962081;28;19970;-89
2022/03/02 00:08:30;;;;;;;;;;;7.60;81.50;;;;;;4979249;28;19914;-89
2022/03/02 00:11:16;;;;;;;;;;;;;;;;;;;;;
2022/03/02 00:13:55;;;;;;;;;;;7.60;81.30;;;;;;4979050;28;19914;-88
2022/03/02 00:16:39;;;;;;;;;;;7.60;81.20;;;;;;4962418;28;20282;-87
2022/03/02 00:19:18;;;;;;;;;;;7.60;81.30;;;;;;4961509;28;19933;-89
2022/03/02 00:21:46;;;;;;;;;;;7.60;81.40;;;;;;4961399;28;19917;-90
2022/03/02 00:24:24;;;;;;;;;;;;;;;;;;;;;
2022/03/02 00:26:53;;;;;;;;;;;7.60;81.50;;;;;;4979181;28;19914;-88
2022/03/02 00:29:21;;;;;;;;;;;7.50;81.80;;;;;;4961885;28;19914;-89
2022/03/02 00:31:59;;;;;;;;;;;7.50;82.20;;;;;;4962697;28;19965;-89
2022/03/02 00:34:31;;;;;;;;;;;7.50;82.50;;;;;;4962217;28;20005;-89
2022/03/02 00:36:59;;;;;;;;;;;7.50;82.90;;;;;;4962311;28;20468;-90
2022/03/02 00:39:26;;;;;;;;;;;7.50;83.10;;;;;;4966188;28;19942;-89
2022/03/02 00:42:10;;;;;;;;;;;7.40;83.20;;;;;;5000602;28;19918;-88
2022/03/02 00:44:46;;;;;;;;;;;7.40;83.20;;;;;;4984026;28;19937;-92
2022/03/02 00:47:11;;;;;;;;;;;7.40;83.20;;;;;;4984166;28;19926;-88
2022/03/02 00:49:42;;;;;;;;;;;7.40;83.00;;;;;;4970809;28;19949;-90
2022/03/02 00:52:11;;;;;;;;;;;7.40;82.70;;;;;;4960929;28;19914;-89
2022/03/02 00:54:55;;;;;;;;;;;;;;;;;;;;;
2022/03/02 01:00:48;;;;;;;;;;;;;;;;;;;;;
2022/03/02 01:03:20;;;;;;;;;;;7.40;82.20;;;;;;4978176;28;19917;-88
2022/03/02 01:05:48;;;;;;;;;;;7.40;82.10;;;;;;4961016;28;20358;-89
2022/03/02 01:08:31;;;;;;;;;;;7.40;82.10;;;;;;4941041;29;20421;-87
2022/03/02 01:11:14;;;;;;;;;;;7.40;82.10;;;;;;4936308;29;21750;-88
2022/03/02 01:13:47;;;;;;;;;;;7.40;82.10;;;;;;4958760;29;20390;-88
2022/03/02 01:16:26;;;;;;;;;;;;;;;;;;;;;
2022/03/02 01:18:54;;;;;;;;;;;7.30;81.80;;;;;;4958593;29;19914;-88
2022/03/02 01:21:33;;;;;;;;;;;;;;;;;;;;;
2022/03/02 01:24:02;;;;;;;;;;;7.30;82.10;;;;;;4978976;28;20274;-89
2022/03/02 01:26:31;;;;;;;;;;;7.30;82.20;;;;;;4978565;28;19911;-89
2022/03/02 01:28:59;;;;;;;;;;;7.30;82.30;;;;;;4945492;28;20374;-90
2022/03/02 01:31:30;;;;;;;;;;;7.30;82.30;;;;;;4961504;28;19968;-89
2022/03/02 01:34:06;;;;;;;;;;;7.30;82.50;;;;;;4964248;28;19915;-88
2022/03/02 01:36:37;;;;;;;;;;;7.30;82.50;;;;;;4950036;28;19925;-89
2022/03/02 01:39:07;;;;;;;;;;;7.30;82.40;;;;;;4948972;28;19968;-89
2022/03/02 01:41:45;;;;;;;;;;;;;;;;;;;;;
2022/03/02 01:44:14;;;;;;;;;;;7.20;82.60;;;;;;4978289;28;19920;-87
2022/03/02 01:46:44;;;;;;;;;;;7.20;82.70;;;;;;4960239;28;19929;-89
2022/03/02 01:49:10;;;;;;;;;;;7.20;82.70;;;;;;4960392;28;19925;-89
2022/03/02 01:51:39;;;;;;;;;;;7.20;82.70;;;;;;4960879;28;19921;-88
2022/03/02 01:54:10;;;;;;;;;;;7.20;82.80;;;;;;4977964;28;19911;-87
2022/03/02 01:56:39;;;;;;;;;;;7.20;82.90;;;;;;4960481;28;19917;-89
2022/03/02 02:02:00;;;;;;;;;;;;;;;;;;;;;
2022/03/02 02:04:42;;;;;;;;;;;7.10;83.30;;;;;;4979544;28;19969;-89
2022/03/02 02:07:16;;;;;;;;;;;7.00;83.30;;;;;;4942179;28;19914;-89
2022/03/02 02:09:45;;;;;;;;;;;7.00;83.40;;;;;;4961334;28;19918;-89
2022/03/02 02:12:11;;;;;;;;;;;7.00;83.50;;;;;;4981846;28;19918;-89
2022/03/02 02:14:39;;;;;;;;;;;7.00;83.60;;;;;;4982835;28;19905;-87
2022/03/02 02:20:00;;;;;;;;;;;7.00;83.70;;;;;;4975581;28;19937;-87
2022/03/02 02:22:31;;;;;;;;;;;7.00;83.70;;;;;;4978304;28;19969;-87
2022/03/02 02:24:57;;;;;;;;;;;6.90;83.70;;;;;;4976703;28;19921;-88
2022/03/02 02:27:22;;;;;;;;;;;6.90;83.90;;;;;;4948705;28;20285;-88
2022/03/02 02:30:21;;;;;;;;;;;;;;;;;;;;;
2022/03/02 02:32:56;;;;;;;;;;;6.90;84.00;;;;;;4979306;28;20004;-89
2022/03/02 02:35:29;;;;;;;;;;;6.90;84.00;;;;;;4962439;28;19945;-88
2022/03/02 02:38:07;;;;;;;;;;;;;;;;;;;;;
2022/03/02 02:40:36;;;;;;;;;;;6.90;84.00;;;;;;4978491;28;20028;-90
2022/03/02 02:43:11;;;;;;;;;;;6.90;83.80;;;;;;4960302;28;19914;-89
2022/03/02 02:45:42;;;;;;;;;;;6.90;83.70;;;;;;4961099;28;19968;-88
2022/03/02 02:48:15;;;;;;;;;;;6.90;83.60;;;;;;4964723;28;19961;-88
2022/03/02 02:50:43;;;;;;;;;;;6.90;83.50;;;;;;4963910;28;20001;-88
2022/03/02 02:56:20;;;;;;;;;;;6.80;83.40;;;;;;4982242;28;20018;-88
2022/03/02 02:58:48;;;;;;;;;;;6.80;83.40;;;;;;4981147;28;19910;-89
2022/03/02 03:01:31;;;;;;;;;;;6.80;83.40;;;;;;4964896;28;20350;-87
2022/03/02 03:04:13;;;;;;;;;;;;;;;;;;;;;
2022/03/02 03:06:49;;;;;;;;;;;6.80;83.20;;;;;;4982485;28;20001;-89
2022/03/02 03:09:20;;;;;;;;;;;6.80;83.20;;;;;;4963883;28;19914;-88
2022/03/02 03:11:48;;;;;;;;;;;6.80;83.20;;;;;;4980337;28;19964;-89
2022/03/02 03:14:26;;;;;;;;;;;6.80;83.20;;;;;;4963619;28;19914;-88
2022/03/02 03:17:15;;;;;;;;;;;6.80;83.20;;;;;;4963998;28;19997;-89
2022/03/02 03:19:48;;;;;;;;;;;6.80;83.20;;;;;;4963372;28;19961;-89
2022/03/02 03:22:29;;;;;;;;;;;6.80;83.20;;;;;;4963463;28;20013;-90
2022/03/02 03:24:55;;;;;;;;;;;6.80;83.40;;;;;;4963505;28;19914;-89
2022/03/02 03:27:21;;;;;;;;;;;6.80;83.30;;;;;;4962653;28;20255;-89
2022/03/02 03:29:59;;;;;;;;;;;;;;;;;;;;;
2022/03/02 03:35:19;;;;;;;;;;;6.80;83.00;;;;;;4980892;28;19914;-88
2022/03/02 03:37:52;;;;;;;;;;;6.80;83.00;;;;;;4963460;28;19910;-87
2022/03/02 03:40:31;;;;;;;;;;;6.80;83.00;;;;;;4967173;28;19925;-89
2022/03/02 03:43:22;;;;;;;;;;;6.80;83.00;;;;;;5001808;28;19914;-89
2022/03/02 03:45:58;;;;;;;;;;;6.80;83.10;;;;;;4969001;28;19899;-90
2022/03/02 03:48:26;;;;;;;;;;;6.80;83.10;;;;;;4965350;29;19918;-89
2022/03/02 03:51:08;;;;;;;;;;;6.70;83.10;;;;;;4965816;28;19958;-90
2022/03/02 03:53:43;;;;;;;;;;;6.70;83.90;;;;;;4959546;29;19911;-89
2022/03/02 03:56:14;;;;;;;;;;;6.70;83.40;;;;;;4959022;28;19911;-87
2022/03/02 03:58:39;;;;;;;;;;;6.60;83.50;;;;;;4958904;29;19926;-88
2022/03/02 04:01:13;;;;;;;;;;;6.70;84.40;;;;;;4961624;28;19910;-89
2022/03/02 04:03:49;;;;;;;;;;;;;;;;;;;;;
2022/03/02 04:06:24;;;;;;;;;;;6.60;84.00;;;;;;4972660;28;19911;-89
2022/03/02 04:08:49;;;;;;;;;;;6.50;84.00;;;;;;4962054;28;19918;-88
2022/03/02 04:14:22;;;;;;;;;;;;;;;;;;;;;
2022/03/02 04:16:55;;;;;;;;;;;6.50;84.10;;;;;;4944257;29;19914;-89
2022/03/02 04:19:24;;;;;;;;;;;6.50;84.30;;;;;;4960096;29;20378;-89
2022/03/02 04:21:52;;;;;;;;;;;6.50;84.40;;;;;;4942444;29;19911;-88
2022/03/02 04:24:25;;;;;;;;;;;6.50;84.50;;;;;;4950277;28;19965;-90
2022/03/02 04:26:56;;;;;;;;;;;6.50;84.50;;;;;;4962007;28;19934;-89
2022/03/02 04:29:30;;;;;;;;;;;6.50;84.70;;;;;;4959066;28;19968;-88
2022/03/02 04:31:55;;;;;;;;;;;6.40;84.80;;;;;;4945362;28;19925;-89
2022/03/02 04:34:23;;;;;;;;;;;6.40;84.90;;;;;;4945240;28;19915;-90
2022/03/02 04:36:52;;;;;;;;;;;6.40;84.90;;;;;;4945533;28;20351;-89
2022/03/02 04:39:20;;;;;;;;;;;6.40;85.00;;;;;;4958435;29;20351;-88
2022/03/02 04:42:14;;;;;;;;;;;6.40;85.20;;;;;;4958762;28;19977;-90
2022/03/02 04:44:49;;;;;;;;;;;6.30;85.30;;;;;;4958632;29;20351;-88
2022/03/02 04:47:17;;;;;;;;;;;6.40;85.50;;;;;;4958038;28;19922;-90
2022/03/02 04:49:53;;;;;;;;;;;6.30;85.50;;;;;;4961252;28;20393;-88
2022/03/02 04:52:22;;;;;;;;;;;6.40;85.70;;;;;;4959134;28;20000;-88
2022/03/02 04:55:09;;;;;;;;;;;6.40;85.90;;;;;;4961758;28;19910;-88
2022/03/02 04:57:35;;;;;;;;;;;6.30;86.10;;;;;;4946789;28;19942;-87
2022/03/02 05:00:03;;;;;;;;;;;6.30;86.30;;;;;;4961472;28;19910;-87
2022/03/02 05:02:34;;;;;;;;;;;6.30;86.40;;;;;;4978511;28;20359;-89
2022/03/02 05:05:17;;;;;;;;;;;6.30;86.50;;;;;;4962037;28;19914;-89
2022/03/02 05:07:45;;;;;;;;;;;6.30;86.60;;;;;;4963488;28;19989;-88
2022/03/02 05:10:22;;;;;;;;;;;6.30;86.70;;;;;;4970537;28;19910;-91
2022/03/02 05:15:39;;;;;;;;;;;6.30;86.80;;;;;;4967493;28;19907;-89
2022/03/02 05:18:15;;;;;;;;;;;6.30;86.80;;;;;;4964482;28;19983;-90
2022/03/02 05:20:40;;;;;;;;;;;6.20;86.80;;;;;;4963096;28;19898;-87
2022/03/02 05:23:08;;;;;;;;;;;6.10;87.00;;;;;;4963201;29;19921;-88
2022/03/02 05:25:48;;;;;;;;;;;6.10;87.20;;;;;;4978118;29;19911;-88
2022/03/02 05:28:38;;;;;;;;;;;6.10;87.20;;;;;;4962050;28;19965;-90
2022/03/02 05:31:16;;;;;;;;;;;6.00;87.30;;;;;;4947472;28;19922;-88
2022/03/02 05:33:47;;;;;;;;;;;6.10;87.50;;;;;;4978437;28;20244;-89
2022/03/02 05:36:15;;;;;;;;;;;6.00;87.50;;;;;;4961378;28;20321;-87
2022/03/02 05:38:41;;;;;;;;;;;6.00;87.50;;;;;;4957964;29;19910;-88
2022/03/02 05:41:16;;;;;;;;;;;6.00;87.50;;;;;;4957498;29;20390;-89
2022/03/02 05:43:44;;;;;;;;;;;6.00;87.50;;;;;;4957876;28;19915;-88
2022/03/02 05:46:12;;;;;;;;;;;6.00;87.70;;;;;;4945178;28;19926;-88
2022/03/02 05:48:45;;;;;;;;;;;6.00;87.90;;;;;;4962247;28;19910;-89
2022/03/02 05:51:17;;;;;;;;;;;5.90;88.10;;;;;;4962025;28;19914;-86
2022/03/02 05:53:45;;;;;;;;;;;5.90;88.10;;;;;;4962151;28;19938;-88
2022/03/02 05:56:16;;;;;;;;;;;5.90;88.30;;;;;;4964619;28;19985;-89
2022/03/02 05:58:44;;;;;;;;;;;5.80;88.40;;;;;;4964122;28;19918;-89
2022/03/02 06:01:27;;;;;;;;;;;5.80;88.40;;;;;;4946277;28;20385;-90
2022/03/02 06:03:53;;;;;;;;;;;5.80;88.40;;;;;;4962937;28;19918;-88
2022/03/02 06:06:39;;;;;;;;;;;5.80;88.60;;;;;;4963167;28;19918;-88
2022/03/02 06:10:07;;;;;;;;;;;5.80;88.60;;;;;;4945317;28;19919;-90
2022/03/02 06:12:20;;;;;;;;;;;5.70;88.60;;;;;;4975218;28;20282;-90
2022/03/02 06:18:00;;;;;;;;;;;;;;;;;;;;;
2022/03/02 06:20:37;;;;;;;;;;;5.60;89.00;;;;;;4978516;28;19993;-88
2022/03/02 06:23:05;;;;;;;;;;;5.60;89.30;;;;;;4964299;28;19961;-89
2022/03/02 06:31:51;;;;;;;;;;;5.60;89.50;;;;;;4980017;28;19973;-92
2022/03/02 06:34:38;;;;;;;;;;;;;;;;;;;;;
2022/03/02 06:37:37;;;;;;;;;;;;;;;;;;;;;
2022/03/02 06:40:15;;;;;;;;;;;5.50;89.80;;;;;;5002514;28;19923;-91
2022/03/02 06:42:48;;;;;;;;;;;5.60;89.80;;;;;;4984377;28;19941;-91
2022/03/02 06:45:51;;;;;;;;;;;5.50;89.90;;;;;;4984846;28;19914;-89
2022/03/02 06:54:36;;;;;;;;;;;5.40;90.10;;;;;;4941451;28;19910;-89
2022/03/02 07:03:31;;;;;;;;;;;;;;;;;;;;;
2022/03/02 07:06:24;;;;;;;;;;;5.40;90.40;;;;;;4965897;28;19982;-90
2022/03/02 07:09:01;;;;;;;;;;;5.40;90.50;;;;;;4963119;28;19926;-90
2022/03/02 07:11:36;;;;;;;;;;;5.40;90.50;;;;;;4948149;28;19924;-89
2022/03/02 07:16:50;;;;;;;;;;;5.40;90.60;;;;;;4980801;28;19957;-91
2022/03/02 07:19:53;;;;;;;;;;;5.40;90.60;;;;;;4962995;28;19936;-90
2022/03/02 07:22:24;;;;;;;;;;;;;;;;;;;;;
2022/03/02 07:25:19;;;;;;;;;;;5.40;90.60;;;;;;4980476;28;19910;-88
2022/03/02 07:27:55;;;;;;;;;;;;;;;;;;;;;
2022/03/02 07:30:26;;;;;;;;;;;5.40;90.50;;;;;;4979976;28;19914;-88
2022/03/02 07:33:01;;;;;;;;;;;5.50;90.50;;;;;;4979933;28;19918;-88
2022/03/02 07:35:37;;;;;;;;;;;5.50;90.40;;;;;;4961546;28;19957;-89
2022/03/02 07:38:09;;;;;;;;;;;5.50;90.40;;;;;;4962446;28;19921;-88
2022/03/02 07:40:52;;;;;;;;;;;5.50;90.40;;;;;;4962118;28;19918;-87
2022/03/02 07:46:47;;;;;;;;;;;5.50;90.30;;;;;;4974888;28;20025;-88
2022/03/02 07:49:15;;;;;;;;;;;5.60;90.30;;;;;;4979177;28;19961;-89
2022/03/02 07:51:43;;;;;;;;;;;5.60;90.20;;;;;;4962477;28;19914;-87
2022/03/02 07:54:12;;;;;;;;;;;5.60;90.10;;;;;;4961987;28;19960;-89
2022/03/02 07:56:38;;;;;;;;;;;5.60;90.00;;;;;;4958353;29;19953;-88
2022/03/02 07:59:18;;;;;;;;;;;5.70;89.90;;;;;;4961642;28;19917;-91
2022/03/02 08:01:49;;;;;;;;;;;5.70;89.90;;;;;;4962130;28;19914;-87
2022/03/02 08:04:18;;;;;;;;;;;5.70;89.80;;;;;;4963674;28;19910;-87
2022/03/02 08:06:47;;;;;;;;;;;5.70;89.60;;;;;;4979636;28;19922;-89
2022/03/02 08:09:20;;;;;;;;;;;5.80;88.90;;;;;;4984485;28;19946;-87
2022/03/02 08:11:46;;;;;;;;;;;5.80;88.60;;;;;;4984682;28;19902;-87
2022/03/02 08:14:24;;;;;;;;;;;5.80;88.00;;;;;;4983941;28;19985;-88
2022/03/02 08:16:55;;;;;;;;;;;5.80;87.60;;;;;;4960668;28;19921;-85
2022/03/02 08:19:30;;;;;;;;;;;5.90;87.70;;;;;;4974490;28;19933;-84
2022/03/02 08:22:09;;;;;;;;;;;5.90;87.90;;;;;;4973687;28;19910;-84
2022/03/02 08:24:41;;;;;;;;;;;5.90;87.10;;;;;;4973652;28;19910;-83
2022/03/02 08:27:26;;;;;;;;;;;5.90;86.50;;;;;;4973371;28;19910;-83
2022/03/02 08:30:02;;;;;;;;;;;6.00;86.60;;;;;;4970445;28;19921;-87
2022/03/02 08:32:37;;;;;;;;;;;6.00;86.20;;;;;;4961831;28;19915;-88
2022/03/02 08:35:16;;;;;;;;;;;6.00;86.10;;;;;;4959722;28;19914;-88
2022/03/02 08:37:49;;;;;;;;;;;6.10;86.10;;;;;;4961630;28;19910;-88
2022/03/02 08:40:25;;;;;;;;;;;;;;;;;;;;;
2022/03/02 08:43:01;;;;;;;;;;;;;;;;;;;;;
2022/03/02 08:45:37;;;;;;;;;;;;;;;;;;;;;
2022/03/02 08:48:12;;;;;;;;;;;6.30;84.40;;;;;;4977606;28;19925;-87
2022/03/02 08:51:04;;;;;;;;;;;6.30;83.50;;;;;;4960758;28;20389;-89
2022/03/02 08:53:33;;;;;;;;;;;6.30;82.90;;;;;;4952961;28;19953;-87
2022/03/02 08:56:00;;;;;;;;;;;6.40;82.30;;;;;;4961107;28;20342;-89
2022/03/02 08:58:35;;;;;;;;;;;6.40;82.80;;;;;;4960879;28;20000;-88
2022/03/02 09:01:23;;;;;;;;;;;6.50;81.60;;;;;;4978071;28;20269;-87
2022/03/02 09:03:58;;;;;;;;;;;6.50;81.60;;;;;;4960791;28;19915;-88
2022/03/02 09:06:40;;;;;;;;;;;6.60;81.70;;;;;;4960699;28;19982;-88
2022/03/02 09:12:38;;;;;;;;;;;6.70;81.40;;;;;;4956173;28;19988;-88
2022/03/02 09:21:06;;;;;;;;;;;7.00;80.40;;;;;;4978074;28;19968;-87
2022/03/02 09:27:16;;;;;;;;;;;7.10;78.50;;;;;;4938619;28;20340;-88
2022/03/02 09:30:02;;;;;;;;;;;7.10;76.40;;;;;;4905479;29;19915;-88
2022/03/02 09:38:47;;;;;;;;;;;7.20;76.50;;;;;;4940965;29;19941;-88
2022/03/02 09:41:32;;;;;;;;;;;7.30;75.40;;;;;;4950431;29;19920;-87
2022/03/02 09:44:28;;;;;;;;;;;7.30;75.80;;;;;;4922553;29;19965;-87
2022/03/02 09:47:02;;;;;;;;;;;7.40;76.30;;;;;;4941997;28;19965;-88
2022/03/02 09:56:00;;;;;;;;;;;;;;;;;;;;;
2022/03/02 09:58:46;;;;;;;;;;;7.70;75.10;;;;;;4953723;28;19917;-91
2022/03/02 10:01:24;;;;;;;;;;;7.70;75.60;;;;;;4896134;29;20273;-88
2022/03/02 10:04:18;;;;;;;;;;;;;;;;;;;;;
2022/03/02 10:06:50;;;;;;;;;;;7.80;75.40;;;;;;4958604;29;19914;-87
2022/03/02 10:09:40;;;;;;;;;;;;;;;;;;;;;
2022/03/02 10:12:10;;;;;;;;;;;7.90;73.10;;;;;;4958556;28;19920;-89
2022/03/02 10:14:46;;;;;;;;;;;7.90;74.00;;;;;;4943585;28;19914;-89
2022/03/02 10:20:37;;;;;;;;;;;8.00;74.00;;;;;;4963345;28;19949;-88
2022/03/02 10:23:23;;;;;;;;;;;8.10;73.70;;;;;;4954254;28;19964;-88
2022/03/02 10:38:33;;;;;;;;;;;8.30;73.00;;;;;;4972245;28;19930;-90
2022/03/02 10:41:22;;;;;;;;;;;;;;;;;;;;;
2022/03/02 10:44:26;;;;;;;;;;;8.40;72.20;;;;;;4986998;28;19960;-90
2022/03/02 10:47:21;;;;;;;;;;;8.40;70.70;;;;;;4927639;29;20006;-89
2022/03/02 10:49:57;;;;;;;;;;;;;;;;;;;;;
2022/03/02 11:02:23;;;;;;;;;;;8.70;71.40;;;;;;4963398;28;19990;-91
2022/03/02 11:05:03;;;;;;;;;;;;;;;;;;;;;
2022/03/02 11:11:06;;;;;;;;;;;;;;;;;;;;;
2022/03/02 11:13:40;;;;;;;;;;;;;;;;;;;;;
2022/03/02 11:16:43;;;;;;;;;;;9.00;70.40;;;;;;4979230;28;19945;-89
2022/03/02 11:22:37;;;;;;;;;;;9.10;70.20;;;;;;4975094;28;19918;-91
2022/03/02 11:25:17;;;;;;;;;;;9.10;70.40;;;;;;4943280;29;19918;-89
2022/03/02 11:28:07;;;;;;;;;;;9.20;70.90;;;;;;4942383;29;20005;-90
2022/03/02 11:33:47;;;;;;;;;;;9.30;68.70;;;;;;4900894;29;19915;-90
2022/03/02 11:42:54;;;;;;;;;;;;;;;;;;;;;
2022/03/02 11:45:56;;;;;;;;;;;9.60;69.20;;;;;;4979459;28;19910;-90
2022/03/02 11:54:45;;;;;;;;;;;9.60;66.60;;;;;;4942374;29;19910;-92
2022/03/02 11:57:41;;;;;;;;;;;9.70;67.00;;;;;;4944011;29;19911;-89
2022/03/02 12:00:17;;;;;;;;;;;9.80;67.50;;;;;;4942323;29;19918;-89
2022/03/02 12:03:11;;;;;;;;;;;9.80;66.70;;;;;;4959689;28;20001;-92
2022/03/02 12:05:48;;;;;;;;;;;9.90;66.70;;;;;;4965954;28;19921;-92
2022/03/02 12:08:34;;;;;;;;;;;9.90;66.30;;;;;;4948149;28;19921;-90
2022/03/02 12:11:23;;;;;;;;;;;10.00;66.50;;;;;;4978162;28;19922;-91
2022/03/02 12:14:09;;;;;;;;;;;10.10;67.30;;;;;;4961865;28;19910;-89
2022/03/02 12:17:01;;;;;;;;;;;;;;;;;;;;;
2022/03/02 12:19:38;;;;;;;;;;;10.20;66.00;;;;;;4977697;28;19916;-91
2022/03/02 12:22:32;;;;;;;;;;;10.20;66.80;;;;;;4946670;28;19914;-92
2022/03/02 12:25:13;;;;;;;;;;;;;;;;;;;;;
2022/03/02 12:27:45;;;;;;;;;;;10.30;66.50;;;;;;4978913;28;19911;-92
2022/03/02 12:30:28;;;;;;;;;;;10.30;67.00;;;;;;4961624;28;19914;-92
2022/03/02 12:36:06;;;;;;;;;;;10.30;65.50;;;;;;4961341;28;20352;-91
2022/03/02 12:38:55;;;;;;;;;;;;;;;;;;;;;
2022/03/02 12:47:15;;;;;;;;;;;10.40;63.90;;;;;;4973854;28;19930;-94
2022/03/02 12:49:53;;;;;;;;;;;10.50;63.70;;;;;;4960937;28;19934;-95
2022/03/02 12:52:43;;;;;;;;;;;;;;;;;;;;;
2022/03/02 12:55:42;;;;;;;;;;;;;;;;;;;;;
2022/03/02 12:58:24;;;;;;;;;;;10.50;62.00;;;;;;4959844;28;20339;-90
2022/03/02 13:01:00;;;;;;;;;;;10.50;61.40;;;;;;4946384;28;20009;-93
2022/03/02 13:07:05;;;;;;;;;;;;;;;;;;;;;
2022/03/02 13:09:54;;;;;;;;;;;;;;;;;;;;;
2022/03/02 13:13:09;;;;;;;;;;;;;;;;;;;;;
2022/03/02 13:15:55;;;;;;;;;;;10.60;61.00;;;;;;4899273;29;19912;-90
2022/03/02 13:18:21;;;;;;;;;;;10.70;60.10;;;;;;4883891;29;19916;-88
2022/03/02 13:20:58;;;;;;;;;;;10.70;58.70;;;;;;4883206;29;19911;-89
2022/03/02 13:23:28;;;;;;;;;;;10.70;59.30;;;;;;4883826;29;19911;-89
2022/03/02 13:26:07;;;;;;;;;;;;;;;;;;;;;
2022/03/02 13:28:55;;;;;;;;;;;10.80;59.80;;;;;;4899683;29;19938;-90
2022/03/02 13:31:41;;;;;;;;;;;10.80;59.80;;;;;;4957662;29;20383;-90
2022/03/02 13:34:16;;;;;;;;;;;10.90;59.90;;;;;;4933436;29;19910;-90
2022/03/02 13:37:08;;;;;;;;;;;;;;;;;;;;;
2022/03/02 13:40:22;;;;;;;;;;;;;;;;;;;;;
2022/03/02 13:43:03;;;;;;;;;;;11.00;59.70;;;;;;4899104;29;19911;-90
2022/03/02 13:45:55;;;;;;;;;;;;;;;;;;;;;
2022/03/02 13:48:37;;;;;;;;;;;11.00;59.70;;;;;;4978033;28;19929;-91
2022/03/02 13:51:38;;;;;;;;;;;;;;;;;;;;;
2022/03/02 13:58:06;;;;;;;;;;;11.00;58.20;;;;;;4918268;29;19911;-92
2022/03/02 14:00:52;;;;;;;;;;;11.10;57.70;;;;;;4846775;29;19980;-93
2022/03/02 14:14:05;;;;;;;;;;;;;;;;;;;;;
2022/03/02 14:23:55;;;;;;;;;;;;;;;;;;;;;
2022/03/02 14:26:31;;;;;;;;;;;11.10;51.50;;;;;;4844486;29;19913;-91
2022/03/02 14:29:19;;;;;;;;;;;11.10;50.40;;;;;;4809062;29;19920;-90
2022/03/02 14:32:21;;;;;;;;;;;;;;;;;;;;;
2022/03/02 14:41:11;;;;;;;;;;;11.00;49.50;;;;;;4840826;29;20017;-89
2022/03/02 14:43:59;;;;;;;;;;;;;;;;;;;;;
2022/03/02 14:46:49;;;;;;;;;;;11.00;47.90;;;;;;4938819;29;19917;-91
2022/03/02 14:49:28;;;;;;;;;;;11.00;48.00;;;;;;4919392;29;19923;-90
2022/03/02 14:52:08;;;;;;;;;;;;;;;;;;;;;
2022/03/02 15:04:31;;;;;;;;;;;11.00;48.60;;;;;;4968000;28;19910;-91
2022/03/02 15:39:03;;;;;;;;;;;11.20;48.20;;;;;;4844287;29;19973;-90
2022/03/02 16:07:30;;;;;;;;;;;;;;;;;;;;;
2022/03/02 16:13:12;;;;;;;;;;;;;;;;;;;;;
2022/03/02 16:19:31;;;;;;;;;;;10.40;50.90;;;;;;4768015;30;19918;-91
2022/03/02 16:22:32;;;;;;;;;;;10.40;51.50;;;;;;4823625;29;19917;-90
2022/03/02 16:25:39;;;;;;;;;;;10.30;51.80;;;;;;4787596;29;19917;-90
2022/03/02 16:28:34;;;;;;;;;;;10.30;52.00;;;;;;4785203;29;19921;-90
2022/03/02 16:31:34;;;;;;;;;;;10.30;51.90;;;;;;4791430;29;19925;-89
2022/03/02 16:37:54;;;;;;;;;;;;;;;;;;;;;
2022/03/02 16:56:43;;;;;;;;;;;;;;;;;;;;;
2022/03/02 17:05:40;;;;;;;;;;;;;;;;;;;;;
2022/03/02 17:08:43;;;;;;;;;;;;;;;;;;;;;
2022/03/02 17:11:52;;;;;;;;;;;9.80;54.80;;;;;;4904452;29;20296;-90
2022/03/02 17:18:06;;;;;;;;;;;9.70;55.50;;;;;;4901741;29;19911;-89
2022/03/02 17:32:33;;;;;;;;;;;9.50;56.50;;;;;;4917852;29;19914;-91
2022/03/02 17:41:59;;;;;;;;;;;;;;;;;;;;;
2022/03/02 17:44:43;;;;;;;;;;;9.30;57.10;;;;;;4853199;29;19938;-91
2022/03/02 17:47:45;;;;;;;;;;;;;;;;;;;;;
2022/03/02 17:50:43;;;;;;;;;;;;;;;;;;;;;
2022/03/02 18:12:28;;;;;;;;;;;;;;;;;;;;;
2022/03/02 18:18:48;;;;;;;;;;;8.70;59.00;;;;;;4814798;29;19913;-93
2022/03/02 18:24:53;;;;;;;;;;;8.60;59.40;;;;;;4836261;29;19919;-90
2022/03/02 18:27:53;;;;;;;;;;;8.50;59.60;;;;;;4854791;29;19917;-91
2022/03/02 18:34:31;;;;;;;;;;;;;;;;;;;;;
2022/03/02 19:08:18;;;;;;;;;;;7.60;63.30;;;;;;4927121;29;19903;-89
2022/03/02 19:14:25;;;;;;;;;;;;;;;;;;;;;
2022/03/02 19:19:57;;;;;;;;;;;7.50;63.00;;;;;;4956396;29;20286;-89
2022/03/02 19:25:52;;;;;;;;;;;;;;;;;;;;;
2022/03/02 19:31:52;;;;;;;;;;;7.40;63.00;;;;;;4865734;29;19929;-89
2022/03/02 19:34:43;;;;;;;;;;;;;;;;;;;;;
2022/03/02 19:37:45;;;;;;;;;;;7.30;63.40;;;;;;4872409;29;19961;-90
2022/03/02 19:40:35;;;;;;;;;;;7.30;64.20;;;;;;4889708;29;19911;-90
2022/03/02 19:43:30;;;;;;;;;;;;;;;;;;;;;
2022/03/02 19:52:57;;;;;;;;;;;;;;;;;;;;;
2022/03/02 19:55:51;;;;;;;;;;;7.10;64.20;;;;;;4894469;29;19977;-89
2022/03/02 20:11:17;;;;;;;;;;;6.90;64.40;;;;;;4862542;29;19924;-89
2022/03/02 20:14:09;;;;;;;;;;;;;;;;;;;;;
2022/03/02 20:17:16;;;;;;;;;;;6.80;64.70;;;;;;4982981;28;20021;-90
2022/03/02 20:23:32;;;;;;;;;;;;;;;;;;;;;
2022/03/02 20:50:58;;;;;;;;;;;;;;;;;;;;;
2022/03/02 20:57:14;;;;;;;;;;;;;;;;;;;;;
2022/03/02 21:12:59;;;;;;;;;;;;;;;;;;;;;
2022/03/02 21:15:37;;;;;;;;;;;6.40;63.30;;;;;;4757177;30;19973;-89
2022/03/02 21:18:24;;;;;;;;;;;;;;;;;;;;;
2022/03/02 21:21:05;;;;;;;;;;;6.40;63.50;;;;;;4759070;29;20016;-89
2022/03/02 21:30:18;;;;;;;;;;;6.30;63.50;;;;;;4847808;29;20416;-90
2022/03/02 21:36:19;;;;;;;;;;;6.30;64.10;;;;;;4864655;29;19912;-93
2022/03/02 21:39:27;;;;;;;;;;;;;;;;;;;;;
2022/03/02 21:45:19;;;;;;;;;;;;;;;;;;;;;
2022/03/02 21:48:20;;;;;;;;;;;;;;;;;;;;;
2022/03/02 22:03:42;;;;;;;;;;;;;;;;;;;;;
2022/03/02 22:09:53;;;;;;;;;;;;;;;;;;;;;
2022/03/02 22:12:54;;;;;;;;;;;;;;;;;;;;;
2022/03/02 22:15:43;;;;;;;;;;;;;;;;;;;;;
2022/03/02 22:43:52;;;;;;;;;;;;;;;;;;;;;
2022/03/02 22:46:48;;;;;;;;;;;;;;;;;;;;;
2022/03/02 22:49:37;;;;;;;;;;;5.60;69.50;;;;;;4913746;29;19917;-90
2022/03/02 22:58:47;;;;;;;;;;;;;;;;;;;;;
2022/03/02 23:32:47;;;;;;;;;;;5.10;71.90;;;;;;4826869;29;19912;-90
2022/03/02 23:57:42;;;;;;;;;;;4.80;73.10;;;;;;4848966;29;19941;-90
